createdAt,value
2022-12-06T00:05:34.839Z,1.00
2022-12-06T00:11:37.206Z,1.00
2022-12-06T00:17:43.062Z,1.00
2022-12-06T00:23:46.201Z,1.00
2022-12-06T00:29:47.907Z,1.10
2022-12-06T00:35:56.713Z,1.10
2022-12-06T00:41:58.397Z,1.10
2022-12-06T00:48:00.187Z,1.10
2022-12-06T00:54:02.512Z,1.20
2022-12-06T01:00:04.814Z,1.10
2022-12-06T01:06:10.440Z,1.10
2022-12-06T01:12:12.399Z,1.10
2022-12-06T01:18:14.299Z,1.20
2022-12-06T01:24:15.990Z,1.20
2022-12-06T01:30:17.904Z,1.20
2022-12-06T01:36:20.736Z,1.20
2022-12-06T01:42:22.558Z,1.20
2022-12-06T01:48:26.040Z,1.10
2022-12-06T01:54:27.907Z,1.10
2022-12-06T02:00:29.736Z,1.10
2022-12-06T02:06:32.012Z,1.10
2022-12-06T02:12:33.834Z,1.10
2022-12-06T02:18:43.914Z,1.10
2022-12-06T02:25:10.627Z,1.10
2022-12-06T02:31:17.285Z,1.20
2022-12-06T02:37:39.303Z,1.00
2022-12-06T02:43:43.067Z,1.00
2022-12-06T02:49:46.707Z,1.00
2022-12-06T02:55:50.029Z,1.00
2022-12-06T03:01:56.935Z,1.00
2022-12-06T03:08:00.328Z,1.00
2022-12-06T03:14:05.400Z,0.90
2022-12-06T03:20:13.107Z,1.00
2022-12-06T03:26:16.626Z,1.00
2022-12-06T03:32:20.702Z,0.90
2022-12-06T03:38:37.260Z,0.90
2022-12-06T03:44:38.952Z,1.10
2022-12-06T03:50:46.077Z,1.10
2022-12-06T03:56:47.794Z,1.00
2022-12-06T04:02:49.531Z,1.00
2022-12-06T04:08:51.302Z,1.00
2022-12-06T04:14:52.935Z,1.00
2022-12-06T04:21:18.132Z,1.00
2022-12-06T04:27:38.227Z,1.10
2022-12-06T04:33:58.337Z,1.00
2022-12-06T04:40:00.282Z,1.10
2022-12-06T04:46:02.388Z,1.10
2022-12-06T04:52:04.946Z,1.20
2022-12-06T04:58:06.718Z,1.20
2022-12-06T05:04:08.558Z,1.20
2022-12-06T05:10:10.410Z,1.20
2022-12-06T05:16:12.266Z,1.20
2022-12-06T05:22:14.116Z,1.20
2022-12-06T05:28:15.794Z,1.30
2022-12-06T05:34:17.588Z,1.30
2022-12-06T05:40:19.224Z,1.30
2022-12-06T05:46:21.007Z,1.30
2022-12-06T05:52:22.736Z,1.30
2022-12-06T05:58:24.555Z,1.30
2022-12-06T06:04:26.180Z,1.40
2022-12-06T06:10:27.913Z,1.40
2022-12-06T06:16:29.679Z,1.40
2022-12-06T06:22:35.431Z,1.50
2022-12-06T06:28:37.456Z,1.50
2022-12-06T06:34:39.150Z,1.50
2022-12-06T06:40:40.924Z,1.60
2022-12-06T06:46:42.627Z,1.60
2022-12-06T06:52:44.499Z,1.60
2022-12-06T06:58:46.611Z,1.60
2022-12-06T07:04:49.889Z,1.70
2022-12-06T07:10:51.625Z,1.70
2022-12-06T07:16:53.275Z,1.70
2022-12-06T07:22:55.436Z,1.80
2022-12-06T07:28:58.195Z,1.80
2022-12-06T07:35:00.121Z,1.90
2022-12-06T07:41:04.998Z,1.80
2022-12-06T07:47:06.953Z,1.90
2022-12-06T07:53:08.674Z,1.90
2022-12-06T07:59:10.693Z,2.00
2022-12-06T08:05:12.919Z,2.10
2022-12-06T08:11:14.709Z,2.20
2022-12-06T08:17:16.844Z,2.10
2022-12-06T08:23:18.829Z,2.20
2022-12-06T08:29:20.736Z,2.30
2022-12-06T08:35:22.425Z,2.40
2022-12-06T08:41:42.820Z,2.50
2022-12-06T08:47:44.524Z,2.50
2022-12-06T08:53:46.129Z,2.60
2022-12-06T08:59:47.942Z,2.60
2022-12-06T09:05:49.688Z,2.80
2022-12-06T09:11:51.512Z,2.90
2022-12-06T09:17:55.064Z,2.90
2022-12-06T09:23:57.566Z,3.10
2022-12-06T09:29:59.651Z,3.10
2022-12-06T09:36:02.956Z,3.20
2022-12-06T09:42:16.507Z,3.20
2022-12-06T09:48:21.189Z,3.30
2022-12-06T09:54:36.256Z,3.30
2022-12-06T10:00:43.684Z,3.50
2022-12-06T10:06:53.952Z,3.40
2022-12-06T10:13:01.280Z,3.40
2022-12-06T10:19:23.160Z,3.50
2022-12-06T10:25:26.632Z,3.50
2022-12-06T10:31:36.652Z,3.50
2022-12-06T10:37:38.450Z,3.50
2022-12-06T10:44:01.922Z,3.60
2022-12-06T10:50:14.266Z,3.60
2022-12-06T10:56:20.792Z,3.70
2022-12-06T11:02:25.593Z,3.80
2022-12-06T11:08:33.096Z,3.80
2022-12-06T11:14:38.365Z,3.80
2022-12-06T11:20:58.811Z,3.80
2022-12-06T11:27:19.027Z,3.90
2022-12-06T11:33:23.989Z,3.90
2022-12-06T11:39:25.844Z,4.00
2022-12-06T11:45:29.862Z,3.90
2022-12-06T11:51:31.724Z,3.90
2022-12-06T11:57:35.731Z,3.90
2022-12-06T12:03:38.453Z,3.80
2022-12-06T12:09:49.221Z,3.80
2022-12-06T12:15:52.900Z,3.70
2022-12-06T12:21:55.655Z,3.80
2022-12-06T12:27:58.358Z,3.80
2022-12-06T12:34:12.570Z,3.90
2022-12-06T12:40:26.437Z,3.80
2022-12-06T12:46:29.043Z,3.80
2022-12-06T12:52:38.325Z,3.80
2022-12-06T12:58:41.268Z,3.80
2022-12-06T13:04:45.844Z,3.80
2022-12-06T13:10:51.677Z,3.80
2022-12-06T13:16:58.609Z,3.80
2022-12-06T13:23:02.993Z,3.80
2022-12-06T13:29:14.931Z,3.90
2022-12-06T13:35:19.868Z,3.90
2022-12-06T13:41:58.578Z,3.90
2022-12-06T13:48:00.155Z,3.90
2022-12-06T13:54:07.818Z,3.80
2022-12-06T14:00:28.503Z,3.90
2022-12-06T14:06:45.558Z,3.80
2022-12-06T14:12:58.284Z,3.80
2022-12-06T14:19:00.334Z,3.80
2022-12-06T14:25:22.473Z,3.90
2022-12-06T14:31:36.372Z,3.80
2022-12-06T14:37:38.166Z,3.80
2022-12-06T14:43:40.586Z,3.80
2022-12-06T14:50:01.147Z,3.80
2022-12-06T14:56:02.972Z,3.80
2022-12-06T15:02:20.409Z,3.70
2022-12-06T15:08:27.895Z,3.70
2022-12-06T15:14:45.356Z,3.70
2022-12-06T15:20:47.429Z,3.70
2022-12-06T15:26:49.434Z,3.60
2022-12-06T15:32:51.052Z,3.70
2022-12-06T15:38:52.797Z,3.60
2022-12-06T15:44:55.334Z,3.60
2022-12-06T15:50:58.061Z,3.60
2022-12-06T15:56:59.686Z,3.50
2022-12-06T16:03:01.469Z,3.50
2022-12-06T16:09:03.181Z,3.50
2022-12-06T16:15:05.069Z,3.40
2022-12-06T16:21:06.689Z,3.30
2022-12-06T16:27:08.738Z,3.30
2022-12-06T16:33:14.988Z,3.30
2022-12-06T16:39:16.704Z,3.20
2022-12-06T16:45:18.540Z,3.00
2022-12-06T16:51:20.376Z,3.00
2022-12-06T16:57:22.041Z,3.00
2022-12-06T17:03:23.640Z,3.00
2022-12-06T17:09:25.403Z,3.00
2022-12-06T17:15:27.358Z,2.90
2022-12-06T17:21:29.062Z,2.70
2022-12-06T17:27:30.747Z,2.60
2022-12-06T17:33:32.459Z,2.70
2022-12-06T17:39:34.356Z,2.70
2022-12-06T17:45:35.993Z,2.80
2022-12-06T17:51:37.713Z,2.70
2022-12-06T17:57:39.324Z,2.80
2022-12-06T18:03:40.968Z,2.80
2022-12-06T18:09:42.803Z,2.70
2022-12-06T18:15:44.427Z,2.70
2022-12-06T18:21:46.145Z,2.80
2022-12-06T18:27:49.028Z,2.90
2022-12-06T18:33:51.084Z,2.90
2022-12-06T18:39:52.700Z,3.00
2022-12-06T18:46:01.524Z,3.00
2022-12-06T18:52:03.327Z,3.00
2022-12-06T18:58:05.091Z,3.10
2022-12-06T19:04:07.652Z,3.20
2022-12-06T19:10:09.385Z,3.10
2022-12-06T19:16:11.508Z,3.10
2022-12-06T19:22:13.354Z,3.20
2022-12-06T19:28:15.045Z,3.20
2022-12-06T19:34:17.693Z,3.20
2022-12-06T19:40:19.315Z,3.20
2022-12-06T19:46:22.503Z,3.30
2022-12-06T19:52:27.909Z,3.30
2022-12-06T19:58:32.782Z,3.40
2022-12-06T20:04:35.380Z,3.40
2022-12-06T20:10:38.548Z,3.40
2022-12-06T20:16:40.897Z,3.40
2022-12-06T20:22:42.957Z,3.40
2022-12-06T20:28:45.286Z,3.40
2022-12-06T20:34:47.057Z,3.50
2022-12-06T20:40:48.654Z,3.50
2022-12-06T20:46:50.574Z,3.50
2022-12-06T20:52:52.232Z,3.50
2022-12-06T20:58:55.073Z,3.50
2022-12-06T21:04:58.118Z,3.50
2022-12-06T21:11:22.103Z,3.50
2022-12-06T21:17:21.759Z,3.50
2022-12-06T21:23:23.677Z,3.50
2022-12-06T21:29:30.377Z,3.50
2022-12-06T21:35:36.203Z,3.50
2022-12-06T21:41:38.168Z,3.50
2022-12-06T21:47:40.387Z,3.60
2022-12-06T21:53:42.244Z,3.50
2022-12-06T21:59:43.919Z,3.50
2022-12-06T22:05:45.513Z,3.50
2022-12-06T22:11:47.231Z,3.50
2022-12-06T22:17:48.832Z,3.50
2022-12-06T22:23:51.218Z,3.50
2022-12-06T22:29:53.994Z,3.50
2022-12-06T22:35:59.319Z,3.50
2022-12-06T22:42:01.085Z,3.50
2022-12-06T22:48:02.777Z,3.50
2022-12-06T22:54:06.141Z,3.60
2022-12-06T23:00:08.196Z,3.70
2022-12-06T23:06:09.891Z,3.60
2022-12-06T23:12:11.586Z,3.60
2022-12-06T23:18:14.085Z,3.50
2022-12-06T23:24:15.896Z,3.60
2022-12-06T23:30:17.881Z,3.50
2022-12-06T23:36:20.802Z,3.60
2022-12-06T23:42:22.484Z,3.50
2022-12-06T23:48:24.182Z,3.60
2022-12-06T23:54:25.778Z,3.60
